RWZ015 UWWW-ULLI
Flight info
| Callsign | RWZ015 |
|---|---|
| Flight time | N/A |
| Altitude | 36000 |
| Route | REDMI T750 OKSUD T787 OTKOL T784 ROKUR P164 PINOK N50 GENPA |
| Aircraft | T204/M-SDE2E3FGHIJ3J4J7RWXY/LB1 |
Departure
| Time | 2026-04-27 18:17 |
|---|---|
| Airport | Kurumoch International Airport (UWWW) |
Arrival
| Time | N/A |
|---|---|
| Airport | Pulkovo Airport (ULLI) |
| Time | Latitude | Longitude | Altitude | Speed | Heading |
|---|---|---|---|---|---|
| 2026-04-27 17:56 | 53.51349 | 50.16458 | 490 ft | 0 kts | 330° |
| 2026-04-27 18:07 | 53.51342 | 50.16465 | 490 ft | 2 kts | 332° |
| 2026-04-27 18:07 | 53.51329 | 50.16476 | 490 ft | 2 kts | 333° |
| 2026-04-27 18:07 | 53.51316 | 50.16488 | 490 ft | 2 kts | 332° |
| 2026-04-27 18:08 | 53.51303 | 50.16500 | 490 ft | 2 kts | 332° |
| 2026-04-27 18:08 | 53.51289 | 50.16512 | 490 ft | 2 kts | 332° |
| 2026-04-27 18:08 | 53.51276 | 50.16524 | 490 ft | 2 kts | 332° |
| 2026-04-27 18:08 | 53.51263 | 50.16536 | 490 ft | 2 kts | 332° |
| 2026-04-27 18:09 | 53.51250 | 50.16547 | 490 ft | 2 kts | 332° |
| 2026-04-27 18:09 | 53.51236 | 50.16559 | 490 ft | 2 kts | 332° |
| 2026-04-27 18:09 | 53.51223 | 50.16571 | 490 ft | 2 kts | 332° |
| 2026-04-27 18:09 | 53.51210 | 50.16583 | 490 ft | 2 kts | 332° |
| 2026-04-27 18:10 | 53.51207 | 50.16586 | 490 ft | 0 kts | 332° |
| 2026-04-27 18:11 | 53.51208 | 50.16585 | 490 ft | 0 kts | 332° |
| 2026-04-27 18:12 | 53.51225 | 50.16569 | 490 ft | 4 kts | 332° |
| 2026-04-27 18:12 | 53.51255 | 50.16557 | 490 ft | 6 kts | 4° |
| 2026-04-27 18:12 | 53.51295 | 50.16594 | 490 ft | 6 kts | 47° |
| 2026-04-27 18:12 | 53.51321 | 50.16660 | 490 ft | 7 kts | 57° |
| 2026-04-27 18:13 | 53.51354 | 50.16714 | 490 ft | 8 kts | 10° |
| 2026-04-27 18:13 | 53.51405 | 50.16695 | 490 ft | 9 kts | 341° |
| 2026-04-27 18:13 | 53.51498 | 50.16639 | 490 ft | 14 kts | 339° |
| 2026-04-27 18:13 | 53.51583 | 50.16586 | 490 ft | 11 kts | 339° |
| 2026-04-27 18:14 | 53.51650 | 50.16545 | 490 ft | 9 kts | 339° |
| 2026-04-27 18:14 | 53.51711 | 50.16529 | 490 ft | 8 kts | 2° |
| 2026-04-27 18:14 | 53.51774 | 50.16570 | 490 ft | 9 kts | 42° |
| 2026-04-27 18:14 | 53.51810 | 50.16665 | 490 ft | 12 kts | 71° |
| 2026-04-27 18:15 | 53.51823 | 50.16797 | 490 ft | 10 kts | 95° |
| 2026-04-27 18:15 | 53.51792 | 50.16879 | 490 ft | 7 kts | 154° |
| 2026-04-27 18:15 | 53.51765 | 50.16898 | 490 ft | 0 kts | 160° |
| 2026-04-27 18:16 | 53.51647 | 50.16963 | 490 ft | 55 kts | 161° |
| 2026-04-27 18:16 | 53.51004 | 50.17355 | 490 ft | 139 kts | 161° |
| 2026-04-27 18:16 | 53.49879 | 50.18052 | 669 ft | 200 kts | 164° |
| 2026-04-27 18:17 | 53.48530 | 50.18910 | 1445 ft | 221 kts | 164° |
| 2026-04-27 18:17 | 53.47035 | 50.19899 | 1888 ft | 239 kts | 164° |
| 2026-04-27 18:17 | 53.45476 | 50.20909 | 1542 ft | 245 kts | 164° |
| 2026-04-27 18:17 | 53.43916 | 50.21924 | 1614 ft | 230 kts | 164° |
| 2026-04-27 18:18 | 53.42430 | 50.22891 | 2008 ft | 230 kts | 165° |
| 2026-04-27 18:18 | 53.40957 | 50.23837 | 2516 ft | 232 kts | 165° |
| 2026-04-27 18:18 | 53.40916 | 50.23863 | 2530 ft | 232 kts | 165° |
| 2026-04-27 18:18 | 53.39648 | 50.24680 | 2988 ft | 234 kts | 166° |
| 2026-04-27 18:19 | 53.39139 | 50.25008 | 3158 ft | 237 kts | 166° |
| 2026-04-27 18:19 | 53.37788 | 50.25869 | 3617 ft | 239 kts | 166° |
| 2026-04-27 18:19 | 53.36243 | 50.26849 | 4141 ft | 240 kts | 166° |
| 2026-04-27 18:19 | 53.34686 | 50.27829 | 4660 ft | 243 kts | 166° |
| 2026-04-27 18:20 | 53.33110 | 50.28816 | 5178 ft | 245 kts | 166° |
| 2026-04-27 18:20 | 53.31496 | 50.29820 | 5702 ft | 246 kts | 166° |
| 2026-04-27 18:20 | 53.29904 | 50.30805 | 6211 ft | 248 kts | 166° |
| 2026-04-27 18:20 | 53.28285 | 50.31802 | 6736 ft | 249 kts | 166° |
| 2026-04-27 18:21 | 53.26643 | 50.32383 | 7206 ft | 237 kts | 192° |
| 2026-04-27 18:21 | 53.25258 | 50.31160 | 7701 ft | 230 kts | 230° |
| 2026-04-27 18:21 | 53.24693 | 50.28682 | 8250 ft | 238 kts | 264° |
| 2026-04-27 18:21 | 53.25220 | 50.26001 | 8798 ft | 260 kts | 299° |
| 2026-04-27 18:22 | 53.26706 | 50.24148 | 9346 ft | 285 kts | 331° |
| 2026-04-27 18:22 | 53.28630 | 50.23167 | 9941 ft | 293 kts | 338° |
| 2026-04-27 18:22 | 53.30615 | 50.22298 | 10509 ft | 298 kts | 339° |
| 2026-04-27 18:22 | 53.32615 | 50.21443 | 10774 ft | 306 kts | 339° |
| 2026-04-27 18:23 | 53.34703 | 50.20554 | 11166 ft | 318 kts | 339° |
| 2026-04-27 18:23 | 53.36934 | 50.19585 | 11821 ft | 348 kts | 340° |
| 2026-04-27 18:23 | 53.39315 | 50.18567 | 12366 ft | 361 kts | 340° |
| 2026-04-27 18:23 | 53.41773 | 50.17522 | 12847 ft | 365 kts | 340° |
| 2026-04-27 18:24 | 53.44249 | 50.16476 | 13301 ft | 369 kts | 340° |
| 2026-04-27 18:24 | 53.46753 | 50.15413 | 13775 ft | 373 kts | 340° |
| 2026-04-27 18:24 | 53.49243 | 50.14346 | 14245 ft | 376 kts | 340° |
| 2026-04-27 18:24 | 53.51789 | 50.13253 | 14704 ft | 382 kts | 340° |
| 2026-04-27 18:25 | 53.54386 | 50.12146 | 15173 ft | 386 kts | 340° |
| 2026-04-27 18:25 | 53.57008 | 50.11026 | 15643 ft | 389 kts | 340° |
| 2026-04-27 18:25 | 53.59628 | 50.09903 | 16102 ft | 395 kts | 340° |
| 2026-04-27 18:25 | 53.62304 | 50.08765 | 16582 ft | 402 kts | 340° |
| 2026-04-27 18:26 | 53.65015 | 50.07589 | 17065 ft | 406 kts | 340° |
| 2026-04-27 18:26 | 53.67752 | 50.06409 | 17565 ft | 410 kts | 340° |
| 2026-04-27 18:26 | 53.70521 | 50.05219 | 18136 ft | 415 kts | 339° |
| 2026-04-27 18:26 | 53.73336 | 50.04004 | 18715 ft | 420 kts | 339° |
| 2026-04-27 18:27 | 53.76168 | 50.02782 | 19294 ft | 426 kts | 339° |
| 2026-04-27 18:27 | 53.79057 | 50.01419 | 19870 ft | 427 kts | 331° |
| 2026-04-27 18:27 | 53.81430 | 49.98806 | 20331 ft | 401 kts | 303° |
| 2026-04-27 18:27 | 53.83156 | 49.95225 | 20981 ft | 392 kts | 293° |
| 2026-04-27 18:28 | 53.84490 | 49.91315 | 21568 ft | 377 kts | 280° |
| 2026-04-27 18:28 | 53.85246 | 49.87187 | 22133 ft | 366 kts | 271° |
| 2026-04-27 18:28 | 53.85860 | 49.82944 | 22741 ft | 375 kts | 270° |
| 2026-04-27 18:28 | 53.86402 | 49.78611 | 23387 ft | 390 kts | 269° |
| 2026-04-27 18:29 | 53.86955 | 49.74010 | 24012 ft | 406 kts | 269° |
| 2026-04-27 18:29 | 53.87506 | 49.69271 | 24619 ft | 420 kts | 269° |
| 2026-04-27 18:29 | 53.88066 | 49.64358 | 25161 ft | 436 kts | 269° |
| 2026-04-27 18:29 | 53.88644 | 49.59225 | 25701 ft | 451 kts | 270° |
| 2026-04-27 18:30 | 53.89241 | 49.54026 | 26222 ft | 458 kts | 270° |
| 2026-04-27 18:30 | 53.89849 | 49.48679 | 26757 ft | 462 kts | 271° |
| 2026-04-27 18:30 | 53.90449 | 49.43402 | 27274 ft | 461 kts | 271° |
| 2026-04-27 18:30 | 53.91053 | 49.38092 | 27779 ft | 456 kts | 271° |
| 2026-04-27 18:31 | 53.91646 | 49.32833 | 28280 ft | 454 kts | 270° |
| 2026-04-27 18:31 | 53.92222 | 49.27641 | 28698 ft | 455 kts | 270° |
| 2026-04-27 18:31 | 53.92809 | 49.22351 | 29125 ft | 455 kts | 270° |
| 2026-04-27 18:31 | 53.93393 | 49.17088 | 29557 ft | 455 kts | 270° |
| 2026-04-27 18:32 | 53.93980 | 49.11828 | 29978 ft | 457 kts | 272° |
| 2026-04-27 18:32 | 53.94984 | 49.06692 | 30301 ft | 477 kts | 285° |
| 2026-04-27 18:32 | 53.96608 | 49.01773 | 30724 ft | 482 kts | 291° |
| 2026-04-27 18:32 | 53.98325 | 48.96883 | 31193 ft | 482 kts | 292° |
| 2026-04-27 18:33 | 54.00107 | 48.92068 | 31620 ft | 483 kts | 294° |
| 2026-04-27 18:33 | 54.01891 | 48.87278 | 32044 ft | 482 kts | 294° |
| 2026-04-27 18:33 | 54.03675 | 48.82527 | 32479 ft | 483 kts | 295° |